createdAt,value
2023-03-11T09:29:50.549Z,3086.71
2023-03-11T09:30:50.590Z,2575.86
2023-03-11T09:31:50.787Z,2570
2023-03-11T09:32:50.692Z,2045
2023-03-11T09:33:50.699Z,1625.86
2023-03-11T09:34:50.735Z,1615
2023-03-11T09:35:50.833Z,1704.21
2023-03-11T09:36:50.826Z,1470
2023-03-11T09:37:50.856Z,1388.36
2023-03-11T09:38:50.890Z,1480.86
2023-03-11T09:39:50.933Z,1524.21
2023-03-11T09:40:50.964Z,1654.21
2023-03-11T09:41:58.042Z,1800
2023-03-11T09:42:51.037Z,1751.71
2023-03-11T09:43:51.092Z,1650.86
2023-03-11T09:44:51.117Z,1521.71
2023-03-11T09:45:51.160Z,1588.36
2023-03-11T09:46:51.254Z,1503.36
2023-03-11T09:47:51.224Z,1228.36
2023-03-11T09:48:51.270Z,1273.36
2023-03-11T09:49:51.311Z,1083.36
2023-03-11T09:50:51.341Z,1141.71
2023-03-11T09:51:51.369Z,1397.5
2023-03-11T09:52:51.419Z,1443.36
2023-03-11T09:53:51.443Z,1320
2023-03-11T09:54:51.489Z,1173.36
2023-03-11T09:55:51.524Z,1126.71
2023-03-11T09:56:51.562Z,1084.21
2023-03-11T09:57:51.591Z,1100.86
2023-03-11T09:58:51.628Z,1102.5
2023-03-11T09:59:51.666Z,1010.86
2023-03-11T10:00:51.718Z,990
2023-03-11T10:01:51.782Z,790.857
2023-03-11T10:02:51.854Z,1076.71
2023-03-11T10:03:51.827Z,860.857
2023-03-11T10:04:51.874Z,749.214
2023-03-11T10:05:51.892Z,775.857
2023-03-11T10:06:51.930Z,866.714
2023-03-11T10:07:51.972Z,911.714
2023-03-11T10:08:52.013Z,975
2023-03-11T10:09:52.056Z,1350
2023-03-11T10:10:52.150Z,1362.5
2023-03-11T10:11:52.137Z,1254.21
2023-03-11T10:12:52.170Z,1280
2023-03-11T10:13:52.196Z,1225
2023-03-11T10:14:52.258Z,1270
2023-03-11T10:15:52.282Z,2088.36
2023-03-11T10:16:52.314Z,1963.36
2023-03-11T10:17:52.384Z,1665.86
2023-03-11T10:18:52.395Z,2319.21
2023-03-11T10:19:52.432Z,2327.5
2023-03-11T10:20:52.460Z,2425
2023-03-11T10:21:52.504Z,2900
2023-03-11T10:22:52.519Z,2771.71
2023-03-11T10:23:52.571Z,2780.86
2023-03-11T10:24:52.598Z,2218.36
2023-03-11T10:25:52.639Z,1983.36
2023-03-11T10:26:52.673Z,2736.71
2023-03-11T10:27:52.721Z,3640
2023-03-11T10:28:52.750Z,4316.71
2023-03-11T10:29:52.800Z,3893.36
2023-03-11T10:30:52.814Z,3990.86
2023-03-11T10:31:52.935Z,3817.5
2023-03-11T10:32:52.995Z,3878.36
2023-03-11T10:33:52.944Z,4023.36
2023-03-11T10:34:52.977Z,3805.86
2023-03-11T10:35:53.044Z,3794.21
2023-03-11T10:36:53.049Z,3568.36
2023-03-11T10:37:53.082Z,3756.71
2023-03-11T10:38:53.112Z,3726.71
2023-03-11T10:39:53.150Z,3672.5
2023-03-11T10:40:53.186Z,4003.36
2023-03-11T10:41:53.214Z,3901.71
2023-03-11T10:42:53.254Z,3200
2023-03-11T10:43:53.284Z,4101.71
2023-03-11T10:44:53.318Z,4533.36
2023-03-11T10:45:53.412Z,4389.21
2023-03-11T10:46:53.401Z,4370
2023-03-11T10:47:53.438Z,4134.21
2023-03-11T10:48:53.478Z,3695.86
2023-03-11T10:49:53.503Z,4026.71
2023-03-11T10:50:53.547Z,4825.86
2023-03-11T10:51:53.577Z,5552.5
2023-03-11T10:52:53.615Z,5075
2023-03-11T10:53:53.645Z,3437.5
2023-03-11T10:54:53.683Z,2267.5
2023-03-11T10:55:53.738Z,1872.5
2023-03-11T10:56:53.751Z,1794.21
2023-03-11T10:57:53.794Z,1874.21
2023-03-11T10:58:53.832Z,1959.21
2023-03-11T10:59:53.871Z,1969.21
2023-03-11T11:00:53.996Z,1895.86
2023-03-11T11:01:53.939Z,1830
2023-03-11T11:02:53.991Z,1868.36
2023-03-11T11:03:54.074Z,1706.71
2023-03-11T11:04:54.054Z,1645.86
2023-03-11T11:05:54.092Z,1560.86
2023-03-11T11:06:54.140Z,1721.71
2023-03-11T11:07:54.162Z,2495
2023-03-11T11:08:54.198Z,2530
2023-03-11T11:09:54.242Z,2812.5
2023-03-11T11:10:54.281Z,2775
2023-03-11T11:11:54.314Z,3011.71
2023-03-11T11:12:54.350Z,3282.5
2023-03-11T11:13:54.399Z,2888.36
2023-03-11T11:14:54.419Z,2978.36
2023-03-11T11:15:54.449Z,3486.71
2023-03-11T11:16:54.526Z,4178.36
2023-03-11T11:17:54.528Z,3524.21
2023-03-11T11:18:54.609Z,3259.21
2023-03-11T11:19:54.601Z,4062.5
2023-03-11T11:20:54.646Z,4318.36
2023-03-11T11:21:54.685Z,4614.21
2023-03-11T11:22:54.710Z,3611.71
2023-03-11T11:23:54.750Z,4705.86
2023-03-11T11:24:54.838Z,4405.86
2023-03-11T11:25:54.816Z,4232.5
2023-03-11T11:26:54.858Z,4213.36
2023-03-11T11:27:54.895Z,4937.5
2023-03-11T11:28:54.926Z,5303.36
2023-03-11T11:29:54.957Z,4855.86
2023-03-11T11:30:55.025Z,5250
2023-03-11T11:31:55.037Z,5600
2023-03-11T11:32:55.237Z,5349.21
2023-03-11T11:33:55.118Z,4942.5
2023-03-11T11:34:55.145Z,4155.86
2023-03-11T11:35:55.215Z,3685.86
2023-03-11T11:36:55.217Z,3161.71
2023-03-11T11:37:55.253Z,3402.5
2023-03-11T11:38:55.327Z,3205.86
2023-03-11T11:39:55.321Z,3676.71
2023-03-11T11:40:55.341Z,3357.5
2023-03-11T11:41:55.387Z,3067.5
2023-03-11T11:42:55.416Z,2628.36
2023-03-11T11:43:55.449Z,2939.21
2023-03-11T11:44:55.476Z,3699.21
2023-03-11T11:45:55.579Z,3587.5
2023-03-11T11:46:55.544Z,3797.5
2023-03-11T11:47:55.571Z,3795
2023-03-11T11:48:55.606Z,2370.86
2023-03-11T11:49:55.649Z,1509.21
2023-03-11T11:50:55.700Z,1557.5
2023-03-11T11:51:55.713Z,1205.86
2023-03-11T11:52:55.751Z,1179.21
2023-03-11T11:53:55.801Z,1179.21
2023-03-11T11:54:55.830Z,1190.86
2023-03-11T11:55:55.872Z,1202.5
2023-03-11T11:56:55.905Z,1398.36
2023-03-11T11:57:55.945Z,1311.71
2023-03-11T11:58:55.976Z,1397.5
2023-03-11T11:59:57.494Z,1387.5
2023-03-11T12:00:56.027Z,1586.71
2023-03-11T12:01:56.076Z,2235.86
2023-03-11T12:02:56.104Z,3510
2023-03-11T12:03:56.172Z,3019.21
2023-03-11T12:04:56.189Z,2564.21
2023-03-11T12:05:58.108Z,3093.36
2023-03-11T12:06:56.245Z,3593.36
2023-03-11T12:07:56.284Z,2805.86
2023-03-11T12:08:56.333Z,2690.86
2023-03-11T12:09:56.345Z,3637.5
2023-03-11T12:10:56.372Z,3776.71
2023-03-11T12:11:56.419Z,2605.86
2023-03-11T12:12:56.449Z,2730
2023-03-11T12:13:56.477Z,2084.21
2023-03-11T12:14:56.519Z,3662.5
2023-03-11T12:15:56.648Z,3786.71
2023-03-11T12:16:56.589Z,2922.5
2023-03-11T12:17:56.624Z,1436.71
2023-03-11T12:18:56.659Z,2227.5
2023-03-11T12:19:56.706Z,1637.5
2023-03-11T12:20:56.731Z,1672.5
2023-03-11T12:21:56.756Z,1982.5
2023-03-11T12:22:56.801Z,1290
2023-03-11T12:23:56.837Z,1754.21
2023-03-11T12:24:56.872Z,2640.86
2023-03-11T12:25:56.917Z,2328.36
2023-03-11T12:26:56.946Z,1610
2023-03-11T12:27:56.988Z,1442.5
2023-03-11T12:28:57.027Z,1761.71
2023-03-11T12:29:57.060Z,1797.5
2023-03-11T12:30:57.131Z,1257.5
2023-03-11T12:31:57.141Z,1140.86
2023-03-11T12:32:57.179Z,1177.5
2023-03-11T12:33:57.205Z,1750
2023-03-11T12:34:57.240Z,1410.86
2023-03-11T12:35:57.327Z,1552.5
2023-03-11T12:36:57.311Z,1727.5
2023-03-11T12:37:57.347Z,1435.86
2023-03-11T12:38:57.390Z,1258.36
2023-03-11T12:39:57.419Z,1105
2023-03-11T12:40:57.474Z,1143.36
2023-03-11T12:41:57.502Z,1235.86
2023-03-11T12:42:57.540Z,1146.71
2023-03-11T12:43:57.569Z,1226.71
2023-03-11T12:44:57.600Z,1120
2023-03-11T12:45:57.634Z,1059.21
2023-03-11T12:46:57.792Z,1212.5
2023-03-11T12:47:57.719Z,1040.86
2023-03-11T12:48:57.751Z,1003.36
2023-03-11T12:49:57.792Z,902.5
2023-03-11T12:50:57.830Z,935
2023-03-11T12:51:57.866Z,919.214
2023-03-11T12:52:57.902Z,956.714
2023-03-11T12:53:57.952Z,1187.5
2023-03-11T12:54:57.980Z,1555.86
2023-03-11T12:55:58.015Z,1931.71
2023-03-11T12:56:58.054Z,1686.71
2023-03-11T12:57:58.082Z,1250
2023-03-11T12:58:58.119Z,1030
2023-03-11T12:59:58.153Z,991.714
2023-03-11T13:00:58.187Z,989.214
2023-03-11T13:01:58.259Z,1031.71
2023-03-11T13:02:58.298Z,1986.71
2023-03-11T13:03:58.290Z,2640.86
2023-03-11T13:04:58.328Z,3170.86
2023-03-11T13:05:58.361Z,2684.21
2023-03-11T13:06:58.398Z,2700
2023-03-11T13:07:58.438Z,2807.5
2023-03-11T13:08:58.472Z,3237.5
2023-03-11T13:09:58.514Z,3294.21
2023-03-11T13:10:58.559Z,3435.86
2023-03-11T13:11:58.604Z,2971.71
2023-03-11T13:12:58.640Z,2476.71
2023-03-11T13:13:58.672Z,2980
2023-03-11T13:15:01.249Z,2081.71
2023-03-11T13:15:58.783Z,1185.86
2023-03-11T13:16:58.778Z,1125.86
2023-03-11T13:17:58.821Z,1146.71
2023-03-11T13:18:58.838Z,1020.86
2023-03-11T13:19:58.877Z,1126.71
2023-03-11T13:20:58.904Z,1085.86
2023-03-11T13:21:58.945Z,1712.5
2023-03-11T13:22:59.034Z,2406.71
2023-03-11T13:23:59.047Z,2877.5
2023-03-11T13:24:59.044Z,2691.71
2023-03-11T13:25:59.104Z,2782.5
2023-03-11T13:26:59.137Z,2693.36
2023-03-11T13:27:59.158Z,2897.5
2023-03-11T13:28:59.197Z,2686.71
2023-03-11T13:29:59.230Z,2412.5
2023-03-11T13:30:59.261Z,2276.71
2023-03-11T13:31:59.304Z,2305.86
2023-03-11T13:32:59.379Z,2359.21
2023-03-11T13:33:59.379Z,2442.5
2023-03-11T13:34:59.411Z,2530.86
2023-03-11T13:35:59.477Z,2365
2023-03-11T13:36:59.470Z,2415
2023-03-11T13:37:59.536Z,2516.71
2023-03-11T13:38:59.555Z,1653.36
2023-03-11T13:39:59.582Z,1139.21
2023-03-11T13:40:59.664Z,925
2023-03-11T13:41:59.670Z,866.714
2023-03-11T13:43:01.289Z,969.214
2023-03-11T13:43:59.749Z,1221.71
2023-03-11T13:44:59.774Z,1250.86
2023-03-11T13:45:59.877Z,1348.36
2023-03-11T13:46:59.845Z,1254.21
2023-03-11T13:47:59.885Z,1029.21
2023-03-11T13:48:59.917Z,957.5
2023-03-11T13:49:59.964Z,1030
2023-03-11T13:50:59.994Z,1100
2023-03-11T13:52:00.035Z,1104.21
2023-03-11T13:53:00.074Z,1095
2023-03-11T13:54:00.108Z,1095
2023-03-11T13:55:00.159Z,1230
2023-03-11T13:56:00.174Z,1368.36
2023-03-11T13:57:00.207Z,1176.71
2023-03-11T13:58:00.241Z,988.357
2023-03-11T13:59:00.276Z,1186.71
2023-03-11T14:00:00.337Z,1258.36
2023-03-11T14:01:00.403Z,2102.5
2023-03-11T14:02:00.392Z,2579.21
2023-03-11T14:03:00.415Z,2220.86
2023-03-11T14:04:00.507Z,2227.5
2023-03-11T14:05:00.489Z,2347.5
2023-03-11T14:06:00.520Z,2648.36
2023-03-11T14:07:00.656Z,2796.71
2023-03-11T14:08:00.583Z,2815
2023-03-11T14:09:00.632Z,2510
2023-03-11T14:10:00.671Z,2266.71
2023-03-11T14:11:00.705Z,2112.5
2023-03-11T14:12:00.734Z,1888.36
2023-03-11T14:13:00.779Z,1627.5
2023-03-11T14:14:00.803Z,1686.71
2023-03-11T14:15:00.846Z,1213.36
2023-03-11T14:16:00.870Z,1593.36
2023-03-11T14:17:00.905Z,1702.5
2023-03-11T14:18:00.948Z,2308.36
2023-03-11T14:19:00.979Z,2846.71
2023-03-11T14:20:01.019Z,3305
2023-03-11T14:21:01.070Z,3026.71
2023-03-11T14:22:01.085Z,1920.86
2023-03-11T14:23:01.123Z,1806.71
2023-03-11T14:24:01.162Z,2034.21
2023-03-11T14:25:01.185Z,2908.36
2023-03-11T14:26:01.231Z,1916.71
2023-03-11T14:27:01.263Z,1959.21
2023-03-11T14:28:01.297Z,2190.86
2023-03-11T14:29:01.333Z,2685
2023-03-11T14:30:01.378Z,2181.71
2023-03-11T14:31:01.417Z,1984.21
2023-03-11T14:32:01.600Z,1261.71
2023-03-11T14:33:01.514Z,1722.5
2023-03-11T14:34:01.519Z,1828.36
2023-03-11T14:35:01.568Z,1296.71
2023-03-11T14:36:01.630Z,1320.86
2023-03-11T14:37:01.630Z,949.214
2023-03-11T14:38:01.663Z,835
2023-03-11T14:39:01.697Z,1045
2023-03-11T14:40:01.724Z,946.714
2023-03-11T14:41:01.768Z,883.357
2023-03-11T14:42:01.798Z,840.857
2023-03-11T14:43:01.838Z,925.857
2023-03-11T14:44:01.882Z,1152.5
2023-03-11T14:45:01.924Z,1192.5
2023-03-11T14:46:02.088Z,1429.21
2023-03-11T14:47:01.991Z,1707.5
2023-03-11T14:48:02.025Z,1213.36
2023-03-11T14:49:02.064Z,1091.71
2023-03-11T14:50:02.103Z,1325.86
2023-03-11T14:51:02.133Z,1586.71
2023-03-11T14:52:02.173Z,1329.21
2023-03-11T14:53:04.609Z,1253.36
2023-03-11T14:54:02.264Z,1011.71
2023-03-11T14:55:02.293Z,962.5
2023-03-11T14:56:02.338Z,958.357
2023-03-11T14:57:02.376Z,1047.5
2023-03-11T14:58:02.409Z,800.857
2023-03-11T14:59:07.699Z,749.214
2023-03-11T15:00:02.517Z,730.857
2023-03-11T15:01:02.589Z,716.714
2023-03-11T15:02:02.541Z,725.857
2023-03-11T15:03:02.655Z,691.714
2023-03-11T15:04:02.612Z,686.714
2023-03-11T15:05:02.651Z,684.214
2023-03-11T15:06:02.689Z,670
2023-03-11T15:07:02.713Z,656.714
2023-03-11T15:08:02.758Z,645.857
2023-03-11T15:09:02.799Z,640.857
2023-03-11T15:10:02.848Z,690.857
2023-03-11T15:11:03.444Z,721.714
2023-03-11T15:12:02.908Z,630.857
2023-03-11T15:13:02.937Z,618.357
2023-03-11T15:14:02.996Z,610
2023-03-11T15:15:03.015Z,603.357
2023-03-11T15:16:03.051Z,603.357
2023-03-11T15:17:03.167Z,600.857
2023-03-11T15:18:03.149Z,600
2023-03-11T15:19:03.176Z,605.857
2023-03-11T15:20:03.203Z,606.714
2023-03-11T15:21:03.253Z,604.214
2023-03-11T15:22:03.290Z,592.5
2023-03-11T15:23:03.336Z,584.214
2023-03-11T15:24:03.360Z,580
2023-03-11T15:25:03.398Z,573.357
2023-03-11T15:26:03.425Z,567.5
2023-03-11T15:27:03.470Z,565
2023-03-11T15:28:03.497Z,563.357
2023-03-11T15:29:05.916Z,560.857
2023-03-11T15:30:03.574Z,557.5
2023-03-11T15:31:03.711Z,554.214
2023-03-11T15:32:03.646Z,553.357
2023-03-11T15:33:03.684Z,550.857
2023-03-11T15:34:03.716Z,548.357
2023-03-11T15:35:03.762Z,545.857
2023-03-11T15:36:03.888Z,545
2023-03-11T15:37:03.840Z,535.857
2023-03-11T15:38:03.883Z,539.214
2023-03-11T15:39:03.905Z,537.5
2023-03-11T15:40:03.940Z,535
2023-03-11T15:41:04.011Z,530.857
2023-03-11T15:42:04.014Z,530
2023-03-11T15:43:04.048Z,528.357
2023-03-11T15:44:04.098Z,525.857
2023-03-11T15:45:04.123Z,520.857
2023-03-11T15:46:04.234Z,515.857
2023-03-11T15:47:04.224Z,510
2023-03-11T15:48:04.237Z,505.857
2023-03-11T15:49:04.277Z,500
2023-03-11T15:50:04.314Z,495.857
2023-03-11T15:51:04.366Z,493.357
2023-03-11T15:52:04.390Z,488.357
2023-03-11T15:53:04.429Z,485
2023-03-11T15:54:04.477Z,482.5
2023-03-11T15:55:04.498Z,477.5
2023-03-11T15:56:07.911Z,474.214
2023-03-11T15:57:04.566Z,470.857
2023-03-11T15:58:04.597Z,467.5
2023-03-11T15:59:04.629Z,462.5
2023-03-11T16:00:04.738Z,459.214
2023-03-11T16:01:04.701Z,455
2023-03-11T16:02:04.743Z,450
2023-03-11T16:03:04.799Z,447.5
2023-03-11T16:04:04.872Z,441.714
2023-03-11T16:05:04.947Z,437.5
2023-03-11T16:06:04.893Z,434.214
2023-03-11T16:07:08.367Z,430
2023-03-11T16:08:04.989Z,424.214
2023-03-11T16:09:05.007Z,419.214
2023-03-11T16:10:05.125Z,414.214
2023-03-11T16:11:05.081Z,409.214
2023-03-11T16:12:05.113Z,403.357
2023-03-11T16:13:05.141Z,397.5
2023-03-11T16:14:05.183Z,392.5
2023-03-11T16:15:05.225Z,386.714
2023-03-11T16:16:05.294Z,381.714
2023-03-11T16:17:05.288Z,375.857
2023-03-11T16:18:05.336Z,370
2023-03-11T16:19:05.367Z,363.357
2023-03-11T16:20:05.403Z,357.5
2023-03-11T16:21:05.432Z,351.714
2023-03-11T16:22:05.466Z,345.857
2023-03-11T16:23:05.502Z,339.214
2023-03-11T16:24:05.542Z,333.357
2023-03-11T16:25:05.578Z,325.857
2023-03-11T16:26:05.610Z,320
2023-03-11T16:27:05.650Z,314.214
2023-03-11T16:28:05.691Z,308.357
2023-03-11T16:29:18.301Z,301.714
2023-03-11T16:30:05.767Z,295
2023-03-11T16:31:05.825Z,287.5
2023-03-11T16:32:05.836Z,280.857
2023-03-11T16:33:05.862Z,275
2023-03-11T16:34:05.910Z,267.5
2023-03-11T16:35:05.967Z,260
2023-03-11T16:36:06.087Z,252.5
2023-03-11T16:37:06.027Z,245
2023-03-11T16:38:06.076Z,237.5
2023-03-11T16:39:06.102Z,229.214
2023-03-11T16:40:06.138Z,221.714
2023-03-11T16:41:06.172Z,213.357
2023-03-11T16:42:06.221Z,205
2023-03-11T16:43:06.251Z,197.5
2023-03-11T16:44:08.589Z,189.214
2023-03-11T16:45:06.313Z,181.714
2023-03-11T16:46:06.419Z,173.357
2023-03-11T16:47:06.385Z,165.857
2023-03-11T16:48:06.429Z,157.5
2023-03-11T16:49:06.451Z,150
2023-03-11T16:50:06.492Z,142.5
2023-03-11T16:51:06.523Z,135
2023-03-11T16:52:06.635Z,126.714
2023-03-11T16:53:06.592Z,119.214
2023-03-11T16:54:06.637Z,111.714
2023-03-11T16:55:06.661Z,104.214
2023-03-11T16:56:06.701Z,97.5
2023-03-11T16:57:06.736Z,90
2023-03-11T16:58:06.787Z,83.3571
2023-03-11T16:59:06.810Z,77.5
2023-03-11T17:00:06.843Z,71.7143
2023-03-11T17:01:06.887Z,65.8571
2023-03-11T17:02:06.959Z,59.2143
2023-03-11T17:03:06.958Z,54.2143
2023-03-11T17:04:06.996Z,48.3571
2023-03-11T17:05:07.058Z,43.3571
2023-03-11T17:06:07.066Z,38.3571
2023-03-11T17:07:07.106Z,34.2143
2023-03-11T17:08:07.135Z,30
2023-03-11T17:09:07.169Z,26.7143
2023-03-11T17:10:07.207Z,23.3571
2023-03-11T17:11:07.240Z,20
2023-03-11T17:12:07.270Z,17.5
2023-03-11T17:13:07.348Z,15
2023-03-11T17:14:16.162Z,13.3571
2023-03-11T17:15:07.387Z,10.8571
2023-03-11T17:16:07.543Z,9.21429
2023-03-11T17:17:07.461Z,7.5
2023-03-11T17:18:07.502Z,6.71429
2023-03-11T17:19:07.523Z,5.85714
2023-03-11T17:20:07.565Z,4.21429
2023-03-11T17:21:07.604Z,3.35714
2023-03-11T17:22:07.641Z,2.5
2023-03-11T17:23:07.672Z,2.5
2023-03-11T17:24:07.702Z,1.71429
2023-03-11T17:25:07.740Z,0.857143
2023-03-11T17:26:07.780Z,0.857143
